sensor_id;sensor_type;location;lat;lon;timestamp;P1;P2;P0
64138;PMS5003;50435;43.700;-79.318;2023-09-30T00:02:23;11;11;
64138;PMS5003;50435;43.700;-79.318;2023-09-30T00:04:51;10;10;
64138;PMS5003;50435;43.700;-79.318;2023-09-30T00:07:18;13;12;
64138;PMS5003;50435;43.700;-79.318;2023-09-30T00:09:45;13;11;
64138;PMS5003;50435;43.700;-79.318;2023-09-30T00:12:13;15;14;
64138;PMS5003;50435;43.700;-79.318;2023-09-30T00:14:40;14;9;
64138;PMS5003;50435;43.700;-79.318;2023-09-30T00:17:08;13;12;
64138;PMS5003;50435;43.700;-79.318;2023-09-30T00:19:35;12;12;
64138;PMS5003;50435;43.700;-79.318;2023-09-30T00:22:02;14;13;
64138;PMS5003;50435;43.700;-79.318;2023-09-30T00:24:30;15;12;
64138;PMS5003;50435;43.700;-79.318;2023-09-30T00:26:57;15;14;
64138;PMS5003;50435;43.700;-79.318;2023-09-30T00:29:25;18;15;
64138;PMS5003;50435;43.700;-79.318;2023-09-30T00:31:52;12;12;
64138;PMS5003;50435;43.700;-79.318;2023-09-30T00:34:20;15;13;
64138;PMS5003;50435;43.700;-79.318;2023-09-30T00:36:47;16;14;
64138;PMS5003;50435;43.700;-79.318;2023-09-30T00:39:15;15;13;
64138;PMS5003;50435;43.700;-79.318;2023-09-30T00:41:42;19;16;
64138;PMS5003;50435;43.700;-79.318;2023-09-30T00:44:10;16;16;
64138;PMS5003;50435;43.700;-79.318;2023-09-30T00:46:37;17;16;
64138;PMS5003;50435;43.700;-79.318;2023-09-30T00:49:07;16;14;
64138;PMS5003;50435;43.700;-79.318;2023-09-30T00:51:34;17;14;
64138;PMS5003;50435;43.700;-79.318;2023-09-30T00:54:03;16;15;
64138;PMS5003;50435;43.700;-79.318;2023-09-30T00:56:31;13;13;
64138;PMS5003;50435;43.700;-79.318;2023-09-30T00:59:00;16;16;
64138;PMS5003;50435;43.700;-79.318;2023-09-30T01:01:27;16;15;
64138;PMS5003;50435;43.700;-79.318;2023-09-30T01:03:57;16;15;
64138;PMS5003;50435;43.700;-79.318;2023-09-30T01:06:24;15;15;
64138;PMS5003;50435;43.700;-79.318;2023-09-30T01:08:52;13;13;
64138;PMS5003;50435;43.700;-79.318;2023-09-30T01:11:20;16;15;
64138;PMS5003;50435;43.700;-79.318;2023-09-30T01:13:48;14;12;
64138;PMS5003;50435;43.700;-79.318;2023-09-30T01:16:16;18;18;
64138;PMS5003;50435;43.700;-79.318;2023-09-30T01:18:43;14;14;
64138;PMS5003;50435;43.700;-79.318;2023-09-30T01:21:11;16;15;
64138;PMS5003;50435;43.700;-79.318;2023-09-30T01:23:39;16;16;
64138;PMS5003;50435;43.700;-79.318;2023-09-30T01:26:08;14;14;
64138;PMS5003;50435;43.700;-79.318;2023-09-30T01:28:37;15;15;
64138;PMS5003;50435;43.700;-79.318;2023-09-30T01:31:06;19;15;
64138;PMS5003;50435;43.700;-79.318;2023-09-30T01:33:34;17;14;
64138;PMS5003;50435;43.700;-79.318;2023-09-30T01:36:01;19;16;
64138;PMS5003;50435;43.700;-79.318;2023-09-30T01:38:29;16;15;
64138;PMS5003;50435;43.700;-79.318;2023-09-30T01:40:57;17;15;
64138;PMS5003;50435;43.700;-79.318;2023-09-30T01:43:25;17;17;
64138;PMS5003;50435;43.700;-79.318;2023-09-30T01:45:52;19;16;
64138;PMS5003;50435;43.700;-79.318;2023-09-30T01:48:20;19;18;
64138;PMS5003;50435;43.700;-79.318;2023-09-30T01:50:47;21;18;
64138;PMS5003;50435;43.700;-79.318;2023-09-30T01:53:14;20;16;
64138;PMS5003;50435;43.700;-79.318;2023-09-30T01:55:42;18;16;
64138;PMS5003;50435;43.700;-79.318;2023-09-30T01:58:09;23;20;
64138;PMS5003;50435;43.700;-79.318;2023-09-30T02:00:36;21;17;
64138;PMS5003;50435;43.700;-79.318;2023-09-30T02:03:04;21;20;
64138;PMS5003;50435;43.700;-79.318;2023-09-30T02:05:32;22;19;
64138;PMS5003;50435;43.700;-79.318;2023-09-30T02:07:59;22;21;
64138;PMS5003;50435;43.700;-79.318;2023-09-30T02:10:26;24;20;
64138;PMS5003;50435;43.700;-79.318;2023-09-30T02:12:54;22;22;
64138;PMS5003;50435;43.700;-79.318;2023-09-30T02:15:22;25;24;
64138;PMS5003;50435;43.700;-79.318;2023-09-30T02:17:49;22;17;
64138;PMS5003;50435;43.700;-79.318;2023-09-30T02:20:16;25;22;
64138;PMS5003;50435;43.700;-79.318;2023-09-30T02:22:44;21;17;
64138;PMS5003;50435;43.700;-79.318;2023-09-30T02:25:11;19;19;
64138;PMS5003;50435;43.700;-79.318;2023-09-30T02:27:39;22;17;
64138;PMS5003;50435;43.700;-79.318;2023-09-30T02:30:07;23;21;
64138;PMS5003;50435;43.700;-79.318;2023-09-30T02:32:36;22;22;
64138;PMS5003;50435;43.700;-79.318;2023-09-30T02:35:05;22;21;
64138;PMS5003;50435;43.700;-79.318;2023-09-30T02:37:33;19;19;
64138;PMS5003;50435;43.700;-79.318;2023-09-30T02:40:00;20;19;
64138;PMS5003;50435;43.700;-79.318;2023-09-30T02:42:28;24;18;
64138;PMS5003;50435;43.700;-79.318;2023-09-30T02:44:56;19;19;
64138;PMS5003;50435;43.700;-79.318;2023-09-30T02:47:25;20;20;
64138;PMS5003;50435;43.700;-79.318;2023-09-30T02:49:53;20;19;
64138;PMS5003;50435;43.700;-79.318;2023-09-30T02:52:22;20;18;
64138;PMS5003;50435;43.700;-79.318;2023-09-30T02:54:50;23;22;
64138;PMS5003;50435;43.700;-79.318;2023-09-30T02:57:18;22;19;
64138;PMS5003;50435;43.700;-79.318;2023-09-30T02:59:45;25;23;
64138;PMS5003;50435;43.700;-79.318;2023-09-30T03:02:14;22;21;
64138;PMS5003;50435;43.700;-79.318;2023-09-30T03:04:42;20;19;
64138;PMS5003;50435;43.700;-79.318;2023-09-30T03:07:09;21;20;
64138;PMS5003;50435;43.700;-79.318;2023-09-30T03:09:36;25;22;
64138;PMS5003;50435;43.700;-79.318;2023-09-30T03:12:04;24;20;
64138;PMS5003;50435;43.700;-79.318;2023-09-30T03:14:32;20;20;
64138;PMS5003;50435;43.700;-79.318;2023-09-30T03:17:00;25;21;
64138;PMS5003;50435;43.700;-79.318;2023-09-30T03:19:27;28;27;
64138;PMS5003;50435;43.700;-79.318;2023-09-30T03:21:54;24;24;
64138;PMS5003;50435;43.700;-79.318;2023-09-30T03:24:22;26;19;
64138;PMS5003;50435;43.700;-79.318;2023-09-30T03:26:49;27;24;
64138;PMS5003;50435;43.700;-79.318;2023-09-30T03:29:16;28;28;
64138;PMS5003;50435;43.700;-79.318;2023-09-30T03:31:43;27;24;
64138;PMS5003;50435;43.700;-79.318;2023-09-30T03:34:10;32;28;
64138;PMS5003;50435;43.700;-79.318;2023-09-30T03:36:38;27;26;
64138;PMS5003;50435;43.700;-79.318;2023-09-30T03:39:05;28;27;
64138;PMS5003;50435;43.700;-79.318;2023-09-30T03:41:33;37;29;
64138;PMS5003;50435;43.700;-79.318;2023-09-30T03:44:01;33;30;
64138;PMS5003;50435;43.700;-79.318;2023-09-30T03:46:29;30;26;
64138;PMS5003;50435;43.700;-79.318;2023-09-30T03:48:57;31;27;
64138;PMS5003;50435;43.700;-79.318;2023-09-30T03:51:24;30;28;
64138;PMS5003;50435;43.700;-79.318;2023-09-30T03:53:52;26;26;
64138;PMS5003;50435;43.700;-79.318;2023-09-30T03:56:20;30;29;
64138;PMS5003;50435;43.700;-79.318;2023-09-30T03:58:47;32;29;
64138;PMS5003;50435;43.700;-79.318;2023-09-30T04:01:14;31;25;
64138;PMS5003;50435;43.700;-79.318;2023-09-30T04:03:42;30;28;
64138;PMS5003;50435;43.700;-79.318;2023-09-30T04:06:09;33;31;
64138;PMS5003;50435;43.700;-79.318;2023-09-30T04:08:36;31;26;
64138;PMS5003;50435;43.700;-79.318;2023-09-30T04:11:04;27;21;
64138;PMS5003;50435;43.700;-79.318;2023-09-30T04:13:32;26;26;
64138;PMS5003;50435;43.700;-79.318;2023-09-30T04:15:59;32;28;
64138;PMS5003;50435;43.700;-79.318;2023-09-30T04:18:26;26;25;
64138;PMS5003;50435;43.700;-79.318;2023-09-30T04:20:54;27;27;
64138;PMS5003;50435;43.700;-79.318;2023-09-30T04:23:22;26;26;
64138;PMS5003;50435;43.700;-79.318;2023-09-30T04:25:50;26;26;
64138;PMS5003;50435;43.700;-79.318;2023-09-30T04:28:17;26;25;
64138;PMS5003;50435;43.700;-79.318;2023-09-30T04:30:44;30;27;
64138;PMS5003;50435;43.700;-79.318;2023-09-30T04:33:11;30;26;
64138;PMS5003;50435;43.700;-79.318;2023-09-30T04:35:39;28;26;
64138;PMS5003;50435;43.700;-79.318;2023-09-30T04:38:06;31;29;
64138;PMS5003;50435;43.700;-79.318;2023-09-30T04:40:34;31;29;
64138;PMS5003;50435;43.700;-79.318;2023-09-30T04:43:01;25;23;
64138;PMS5003;50435;43.700;-79.318;2023-09-30T04:45:30;25;22;
64138;PMS5003;50435;43.700;-79.318;2023-09-30T04:47:57;24;23;
64138;PMS5003;50435;43.700;-79.318;2023-09-30T04:50:24;32;28;
64138;PMS5003;50435;43.700;-79.318;2023-09-30T04:52:51;24;24;
64138;PMS5003;50435;43.700;-79.318;2023-09-30T04:55:19;29;26;
64138;PMS5003;50435;43.700;-79.318;2023-09-30T04:57:47;28;25;
64138;PMS5003;50435;43.700;-79.318;2023-09-30T05:00:15;31;27;
64138;PMS5003;50435;43.700;-79.318;2023-09-30T05:02:44;38;31;
64138;PMS5003;50435;43.700;-79.318;2023-09-30T05:05:12;26;24;
64138;PMS5003;50435;43.700;-79.318;2023-09-30T05:07:39;24;20;
64138;PMS5003;50435;43.700;-79.318;2023-09-30T05:10:07;32;30;
64138;PMS5003;50435;43.700;-79.318;2023-09-30T05:12:35;25;24;
64138;PMS5003;50435;43.700;-79.318;2023-09-30T05:15:03;34;32;
64138;PMS5003;50435;43.700;-79.318;2023-09-30T05:17:32;33;28;
64138;PMS5003;50435;43.700;-79.318;2023-09-30T05:19:59;28;26;
64138;PMS5003;50435;43.700;-79.318;2023-09-30T05:22:27;26;26;
64138;PMS5003;50435;43.700;-79.318;2023-09-30T05:24:54;37;31;
64138;PMS5003;50435;43.700;-79.318;2023-09-30T05:27:22;30;29;
64138;PMS5003;50435;43.700;-79.318;2023-09-30T05:29:49;25;24;
64138;PMS5003;50435;43.700;-79.318;2023-09-30T05:32:16;32;31;
64138;PMS5003;50435;43.700;-79.318;2023-09-30T05:34:44;28;24;
64138;PMS5003;50435;43.700;-79.318;2023-09-30T05:37:11;34;28;
64138;PMS5003;50435;43.700;-79.318;2023-09-30T05:39:39;30;28;
64138;PMS5003;50435;43.700;-79.318;2023-09-30T05:42:06;27;25;
64138;PMS5003;50435;43.700;-79.318;2023-09-30T05:44:34;28;25;
64138;PMS5003;50435;43.700;-79.318;2023-09-30T05:47:01;30;28;
64138;PMS5003;50435;43.700;-79.318;2023-09-30T05:49:29;26;26;
64138;PMS5003;50435;43.700;-79.318;2023-09-30T05:51:56;28;24;
64138;PMS5003;50435;43.700;-79.318;2023-09-30T05:54:23;30;28;
64138;PMS5003;50435;43.700;-79.318;2023-09-30T05:56:50;26;26;
64138;PMS5003;50435;43.700;-79.318;2023-09-30T05:59:18;27;24;
64138;PMS5003;50435;43.700;-79.318;2023-09-30T06:01:46;27;26;
64138;PMS5003;50435;43.700;-79.318;2023-09-30T06:04:13;29;28;
64138;PMS5003;50435;43.700;-79.318;2023-09-30T06:06:40;30;27;
64138;PMS5003;50435;43.700;-79.318;2023-09-30T06:09:08;35;28;
64138;PMS5003;50435;43.700;-79.318;2023-09-30T06:11:35;24;23;
64138;PMS5003;50435;43.700;-79.318;2023-09-30T06:14:03;28;25;
64138;PMS5003;50435;43.700;-79.318;2023-09-30T06:16:31;27;24;
64138;PMS5003;50435;43.700;-79.318;2023-09-30T06:18:58;23;23;
64138;PMS5003;50435;43.700;-79.318;2023-09-30T06:21:25;24;24;
64138;PMS5003;50435;43.700;-79.318;2023-09-30T06:23:53;30;28;
64138;PMS5003;50435;43.700;-79.318;2023-09-30T06:26:20;28;23;
64138;PMS5003;50435;43.700;-79.318;2023-09-30T06:28:48;27;25;
64138;PMS5003;50435;43.700;-79.318;2023-09-30T06:31:15;24;23;
64138;PMS5003;50435;43.700;-79.318;2023-09-30T06:33:43;28;25;
64138;PMS5003;50435;43.700;-79.318;2023-09-30T06:36:10;27;26;
64138;PMS5003;50435;43.700;-79.318;2023-09-30T06:38:38;29;28;
64138;PMS5003;50435;43.700;-79.318;2023-09-30T06:41:06;29;28;
64138;PMS5003;50435;43.700;-79.318;2023-09-30T06:43:34;27;23;
64138;PMS5003;50435;43.700;-79.318;2023-09-30T06:46:05;27;25;
64138;PMS5003;50435;43.700;-79.318;2023-09-30T06:48:32;26;23;
64138;PMS5003;50435;43.700;-79.318;2023-09-30T06:51:00;26;24;
64138;PMS5003;50435;43.700;-79.318;2023-09-30T06:53:27;23;23;
64138;PMS5003;50435;43.700;-79.318;2023-09-30T06:55:55;25;25;
64138;PMS5003;50435;43.700;-79.318;2023-09-30T06:58:23;21;21;
64138;PMS5003;50435;43.700;-79.318;2023-09-30T07:00:50;28;25;
64138;PMS5003;50435;43.700;-79.318;2023-09-30T07:03:18;24;22;
64138;PMS5003;50435;43.700;-79.318;2023-09-30T07:05:46;28;28;
64138;PMS5003;50435;43.700;-79.318;2023-09-30T07:08:13;30;23;
64138;PMS5003;50435;43.700;-79.318;2023-09-30T07:10:40;22;22;
64138;PMS5003;50435;43.700;-79.318;2023-09-30T07:13:08;25;24;
64138;PMS5003;50435;43.700;-79.318;2023-09-30T07:15:36;27;26;
64138;PMS5003;50435;43.700;-79.318;2023-09-30T07:18:04;23;22;
64138;PMS5003;50435;43.700;-79.318;2023-09-30T07:20:31;29;28;
64138;PMS5003;50435;43.700;-79.318;2023-09-30T07:22:59;23;21;
64138;PMS5003;50435;43.700;-79.318;2023-09-30T07:25:26;20;19;
64138;PMS5003;50435;43.700;-79.318;2023-09-30T07:27:54;30;25;
64138;PMS5003;50435;43.700;-79.318;2023-09-30T07:30:21;26;22;
64138;PMS5003;50435;43.700;-79.318;2023-09-30T07:32:48;19;19;
64138;PMS5003;50435;43.700;-79.318;2023-09-30T07:35:16;29;26;
64138;PMS5003;50435;43.700;-79.318;2023-09-30T07:37:43;24;23;
64138;PMS5003;50435;43.700;-79.318;2023-09-30T07:40:11;24;23;
64138;PMS5003;50435;43.700;-79.318;2023-09-30T07:42:39;24;20;
64138;PMS5003;50435;43.700;-79.318;2023-09-30T07:45:07;28;24;
64138;PMS5003;50435;43.700;-79.318;2023-09-30T07:47:36;22;22;
64138;PMS5003;50435;43.700;-79.318;2023-09-30T07:50:03;23;19;
64138;PMS5003;50435;43.700;-79.318;2023-09-30T07:52:31;30;21;
64138;PMS5003;50435;43.700;-79.318;2023-09-30T07:54:59;20;20;
64138;PMS5003;50435;43.700;-79.318;2023-09-30T07:57:27;28;25;
64138;PMS5003;50435;43.700;-79.318;2023-09-30T07:59:54;25;24;
64138;PMS5003;50435;43.700;-79.318;2023-09-30T08:02:22;24;23;
64138;PMS5003;50435;43.700;-79.318;2023-09-30T08:04:49;28;21;
64138;PMS5003;50435;43.700;-79.318;2023-09-30T08:07:17;24;21;
64138;PMS5003;50435;43.700;-79.318;2023-09-30T08:09:44;23;23;
64138;PMS5003;50435;43.700;-79.318;2023-09-30T08:12:14;32;26;
64138;PMS5003;50435;43.700;-79.318;2023-09-30T08:14:41;23;23;
64138;PMS5003;50435;43.700;-79.318;2023-09-30T08:17:09;20;20;
64138;PMS5003;50435;43.700;-79.318;2023-09-30T08:19:37;27;22;
64138;PMS5003;50435;43.700;-79.318;2023-09-30T08:22:05;23;23;
64138;PMS5003;50435;43.700;-79.318;2023-09-30T08:24:32;29;25;
64138;PMS5003;50435;43.700;-79.318;2023-09-30T08:27:00;23;20;
64138;PMS5003;50435;43.700;-79.318;2023-09-30T08:29:28;24;23;
64138;PMS5003;50435;43.700;-79.318;2023-09-30T08:31:55;29;24;
64138;PMS5003;50435;43.700;-79.318;2023-09-30T08:34:23;19;16;
64138;PMS5003;50435;43.700;-79.318;2023-09-30T08:36:50;28;24;
64138;PMS5003;50435;43.700;-79.318;2023-09-30T08:39:17;21;21;
64138;PMS5003;50435;43.700;-79.318;2023-09-30T08:41:45;23;23;
64138;PMS5003;50435;43.700;-79.318;2023-09-30T08:44:13;32;23;
64138;PMS5003;50435;43.700;-79.318;2023-09-30T08:46:41;21;18;
64138;PMS5003;50435;43.700;-79.318;2023-09-30T08:49:09;32;24;
64138;PMS5003;50435;43.700;-79.318;2023-09-30T08:51:39;29;27;
64138;PMS5003;50435;43.700;-79.318;2023-09-30T08:54:07;22;21;
64138;PMS5003;50435;43.700;-79.318;2023-09-30T08:56:34;22;21;
64138;PMS5003;50435;43.700;-79.318;2023-09-30T08:59:03;23;23;
64138;PMS5003;50435;43.700;-79.318;2023-09-30T09:01:31;22;20;
64138;PMS5003;50435;43.700;-79.318;2023-09-30T09:03:59;24;22;
64138;PMS5003;50435;43.700;-79.318;2023-09-30T09:06:26;22;22;
64138;PMS5003;50435;43.700;-79.318;2023-09-30T09:08:54;21;19;
64138;PMS5003;50435;43.700;-79.318;2023-09-30T09:11:39;23;21;
64138;PMS5003;50435;43.700;-79.318;2023-09-30T09:14:07;27;23;
64138;PMS5003;50435;43.700;-79.318;2023-09-30T09:16:34;26;23;
64138;PMS5003;50435;43.700;-79.318;2023-09-30T09:19:12;24;21;
64138;PMS5003;50435;43.700;-79.318;2023-09-30T09:21:41;23;20;
64138;PMS5003;50435;43.700;-79.318;2023-09-30T09:24:26;27;24;
64138;PMS5003;50435;43.700;-79.318;2023-09-30T09:27:03;23;22;
64138;PMS5003;50435;43.700;-79.318;2023-09-30T09:29:31;26;21;
64138;PMS5003;50435;43.700;-79.318;2023-09-30T09:32:07;25;23;
64138;PMS5003;50435;43.700;-79.318;2023-09-30T09:34:37;24;22;
64138;PMS5003;50435;43.700;-79.318;2023-09-30T09:37:12;28;27;
64138;PMS5003;50435;43.700;-79.318;2023-09-30T09:39:40;21;19;
64138;PMS5003;50435;43.700;-79.318;2023-09-30T09:42:23;24;23;
64138;PMS5003;50435;43.700;-79.318;2023-09-30T09:44:52;26;26;
64138;PMS5003;50435;43.700;-79.318;2023-09-30T09:47:22;28;24;
64138;PMS5003;50435;43.700;-79.318;2023-09-30T09:49:50;30;27;
64138;PMS5003;50435;43.700;-79.318;2023-09-30T09:52:19;26;23;
64138;PMS5003;50435;43.700;-79.318;2023-09-30T09:54:48;22;21;
64138;PMS5003;50435;43.700;-79.318;2023-09-30T09:57:16;25;22;
64138;PMS5003;50435;43.700;-79.318;2023-09-30T09:59:45;23;22;
64138;PMS5003;50435;43.700;-79.318;2023-09-30T10:02:13;25;24;
64138;PMS5003;50435;43.700;-79.318;2023-09-30T10:04:42;23;23;
64138;PMS5003;50435;43.700;-79.318;2023-09-30T10:07:11;18;17;
64138;PMS5003;50435;43.700;-79.318;2023-09-30T10:09:45;20;18;
64138;PMS5003;50435;43.700;-79.318;2023-09-30T10:12:16;27;22;
64138;PMS5003;50435;43.700;-79.318;2023-09-30T10:14:44;28;25;
64138;PMS5003;50435;43.700;-79.318;2023-09-30T10:17:12;20;18;
64138;PMS5003;50435;43.700;-79.318;2023-09-30T10:20:03;24;18;
64138;PMS5003;50435;43.700;-79.318;2023-09-30T10:22:32;22;19;
64138;PMS5003;50435;43.700;-79.318;2023-09-30T10:25:00;24;18;
64138;PMS5003;50435;43.700;-79.318;2023-09-30T10:27:58;24;22;
64138;PMS5003;50435;43.700;-79.318;2023-09-30T10:30:26;25;24;
64138;PMS5003;50435;43.700;-79.318;2023-09-30T10:33:09;23;23;
64138;PMS5003;50435;43.700;-79.318;2023-09-30T10:35:45;22;21;
64138;PMS5003;50435;43.700;-79.318;2023-09-30T10:38:45;23;21;
64138;PMS5003;50435;43.700;-79.318;2023-09-30T10:41:13;30;23;
64138;PMS5003;50435;43.700;-79.318;2023-09-30T10:44:32;25;21;
64138;PMS5003;50435;43.700;-79.318;2023-09-30T10:50:01;21;21;
64138;PMS5003;50435;43.700;-79.318;2023-09-30T10:52:29;29;24;
64138;PMS5003;50435;43.700;-79.318;2023-09-30T10:55:02;22;20;
64138;PMS5003;50435;43.700;-79.318;2023-09-30T10:57:30;21;21;
64138;PMS5003;50435;43.700;-79.318;2023-09-30T11:00:13;23;20;
64138;PMS5003;50435;43.700;-79.318;2023-09-30T11:02:49;19;18;
64138;PMS5003;50435;43.700;-79.318;2023-09-30T11:05:17;20;20;
64138;PMS5003;50435;43.700;-79.318;2023-09-30T11:07:45;22;20;
64138;PMS5003;50435;43.700;-79.318;2023-09-30T11:10:16;24;23;
64138;PMS5003;50435;43.700;-79.318;2023-09-30T11:12:57;19;18;
64138;PMS5003;50435;43.700;-79.318;2023-09-30T11:15:25;21;19;
64138;PMS5003;50435;43.700;-79.318;2023-09-30T11:17:52;23;19;
64138;PMS5003;50435;43.700;-79.318;2023-09-30T11:20:20;20;16;
64138;PMS5003;50435;43.700;-79.318;2023-09-30T11:22:47;20;18;
64138;PMS5003;50435;43.700;-79.318;2023-09-30T11:25:15;22;20;
64138;PMS5003;50435;43.700;-79.318;2023-09-30T11:27:43;23;20;
64138;PMS5003;50435;43.700;-79.318;2023-09-30T11:30:11;17;15;
64138;PMS5003;50435;43.700;-79.318;2023-09-30T11:32:39;23;18;
64138;PMS5003;50435;43.700;-79.318;2023-09-30T11:35:08;23;21;
64138;PMS5003;50435;43.700;-79.318;2023-09-30T11:37:37;23;22;
64138;PMS5003;50435;43.700;-79.318;2023-09-30T11:40:10;24;19;
64138;PMS5003;50435;43.700;-79.318;2023-09-30T11:42:39;22;18;
64138;PMS5003;50435;43.700;-79.318;2023-09-30T11:45:18;21;19;
64138;PMS5003;50435;43.700;-79.318;2023-09-30T11:47:47;17;15;
64138;PMS5003;50435;43.700;-79.318;2023-09-30T11:50:14;20;18;
64138;PMS5003;50435;43.700;-79.318;2023-09-30T11:52:44;19;18;
64138;PMS5003;50435;43.700;-79.318;2023-09-30T11:55:12;19;17;
64138;PMS5003;50435;43.700;-79.318;2023-09-30T11:57:39;19;18;
64138;PMS5003;50435;43.700;-79.318;2023-09-30T12:00:07;17;15;
64138;PMS5003;50435;43.700;-79.318;2023-09-30T12:02:35;19;17;
64138;PMS5003;50435;43.700;-79.318;2023-09-30T12:05:03;21;17;
64138;PMS5003;50435;43.700;-79.318;2023-09-30T12:07:31;20;15;
64138;PMS5003;50435;43.700;-79.318;2023-09-30T12:09:58;19;19;
64138;PMS5003;50435;43.700;-79.318;2023-09-30T12:12:26;17;16;
64138;PMS5003;50435;43.700;-79.318;2023-09-30T12:14:53;18;17;
64138;PMS5003;50435;43.700;-79.318;2023-09-30T12:17:20;20;19;
64138;PMS5003;50435;43.700;-79.318;2023-09-30T12:19:47;20;18;
64138;PMS5003;50435;43.700;-79.318;2023-09-30T12:22:14;16;15;
64138;PMS5003;50435;43.700;-79.318;2023-09-30T12:24:42;17;17;
64138;PMS5003;50435;43.700;-79.318;2023-09-30T12:27:10;16;16;
64138;PMS5003;50435;43.700;-79.318;2023-09-30T12:29:37;18;14;
64138;PMS5003;50435;43.700;-79.318;2023-09-30T12:32:05;22;17;
64138;PMS5003;50435;43.700;-79.318;2023-09-30T12:34:33;18;17;
64138;PMS5003;50435;43.700;-79.318;2023-09-30T12:37:02;21;18;
64138;PMS5003;50435;43.700;-79.318;2023-09-30T12:39:29;19;18;
64138;PMS5003;50435;43.700;-79.318;2023-09-30T12:41:57;20;18;
64138;PMS5003;50435;43.700;-79.318;2023-09-30T12:44:25;14;14;
64138;PMS5003;50435;43.700;-79.318;2023-09-30T12:46:52;17;15;
64138;PMS5003;50435;43.700;-79.318;2023-09-30T12:49:20;19;18;
64138;PMS5003;50435;43.700;-79.318;2023-09-30T12:51:48;18;17;
64138;PMS5003;50435;43.700;-79.318;2023-09-30T12:54:15;26;25;
64138;PMS5003;50435;43.700;-79.318;2023-09-30T12:56:42;21;19;
64138;PMS5003;50435;43.700;-79.318;2023-09-30T12:59:10;24;21;
64138;PMS5003;50435;43.700;-79.318;2023-09-30T13:01:37;20;18;
64138;PMS5003;50435;43.700;-79.318;2023-09-30T13:04:04;28;27;
64138;PMS5003;50435;43.700;-79.318;2023-09-30T13:06:33;30;24;
64138;PMS5003;50435;43.700;-79.318;2023-09-30T13:09:00;23;21;
64138;PMS5003;50435;43.700;-79.318;2023-09-30T13:11:28;23;22;
64138;PMS5003;50435;43.700;-79.318;2023-09-30T13:13:55;24;22;
64138;PMS5003;50435;43.700;-79.318;2023-09-30T13:16:23;22;20;
64138;PMS5003;50435;43.700;-79.318;2023-09-30T13:18:50;21;21;
64138;PMS5003;50435;43.700;-79.318;2023-09-30T13:21:17;26;21;
64138;PMS5003;50435;43.700;-79.318;2023-09-30T13:23:45;29;25;
64138;PMS5003;50435;43.700;-79.318;2023-09-30T13:26:12;30;25;
64138;PMS5003;50435;43.700;-79.318;2023-09-30T13:28:40;22;22;
64138;PMS5003;50435;43.700;-79.318;2023-09-30T13:31:07;20;20;
64138;PMS5003;50435;43.700;-79.318;2023-09-30T13:33:35;21;17;
64138;PMS5003;50435;43.700;-79.318;2023-09-30T13:36:02;23;19;
64138;PMS5003;50435;43.700;-79.318;2023-09-30T13:38:30;24;23;
64138;PMS5003;50435;43.700;-79.318;2023-09-30T13:40:58;22;19;
64138;PMS5003;50435;43.700;-79.318;2023-09-30T13:43:25;22;20;
64138;PMS5003;50435;43.700;-79.318;2023-09-30T13:45:52;21;19;
64138;PMS5003;50435;43.700;-79.318;2023-09-30T13:48:20;22;20;
64138;PMS5003;50435;43.700;-79.318;2023-09-30T13:50:47;21;19;
64138;PMS5003;50435;43.700;-79.318;2023-09-30T13:53:15;21;19;
64138;PMS5003;50435;43.700;-79.318;2023-09-30T13:55:42;19;18;
64138;PMS5003;50435;43.700;-79.318;2023-09-30T13:58:10;25;24;
64138;PMS5003;50435;43.700;-79.318;2023-09-30T14:00:38;20;20;
64138;PMS5003;50435;43.700;-79.318;2023-09-30T14:03:05;22;22;
64138;PMS5003;50435;43.700;-79.318;2023-09-30T14:05:32;22;20;
64138;PMS5003;50435;43.700;-79.318;2023-09-30T14:08:00;21;21;
64138;PMS5003;50435;43.700;-79.318;2023-09-30T14:10:27;17;17;
64138;PMS5003;50435;43.700;-79.318;2023-09-30T14:12:54;25;21;
64138;PMS5003;50435;43.700;-79.318;2023-09-30T14:15:22;21;19;
64138;PMS5003;50435;43.700;-79.318;2023-09-30T14:17:49;20;16;
64138;PMS5003;50435;43.700;-79.318;2023-09-30T14:20:16;18;16;
64138;PMS5003;50435;43.700;-79.318;2023-09-30T14:22:44;16;15;
64138;PMS5003;50435;43.700;-79.318;2023-09-30T14:25:11;15;15;
64138;PMS5003;50435;43.700;-79.318;2023-09-30T14:27:39;16;16;
64138;PMS5003;50435;43.700;-79.318;2023-09-30T14:30:07;23;17;
64138;PMS5003;50435;43.700;-79.318;2023-09-30T14:32:35;18;15;
64138;PMS5003;50435;43.700;-79.318;2023-09-30T14:35:03;17;14;
64138;PMS5003;50435;43.700;-79.318;2023-09-30T14:37:31;15;15;
64138;PMS5003;50435;43.700;-79.318;2023-09-30T14:39:59;15;14;
64138;PMS5003;50435;43.700;-79.318;2023-09-30T14:42:27;15;13;
64138;PMS5003;50435;43.700;-79.318;2023-09-30T14:44:55;17;15;
64138;PMS5003;50435;43.700;-79.318;2023-09-30T14:47:23;12;12;
64138;PMS5003;50435;43.700;-79.318;2023-09-30T14:49:50;17;13;
64138;PMS5003;50435;43.700;-79.318;2023-09-30T14:52:18;13;12;
64138;PMS5003;50435;43.700;-79.318;2023-09-30T14:54:45;16;14;
64138;PMS5003;50435;43.700;-79.318;2023-09-30T14:57:13;18;16;
64138;PMS5003;50435;43.700;-79.318;2023-09-30T14:59:40;18;17;
64138;PMS5003;50435;43.700;-79.318;2023-09-30T15:02:08;15;15;
64138;PMS5003;50435;43.700;-79.318;2023-09-30T15:04:36;15;14;
64138;PMS5003;50435;43.700;-79.318;2023-09-30T15:07:04;16;13;
64138;PMS5003;50435;43.700;-79.318;2023-09-30T15:09:31;19;16;
64138;PMS5003;50435;43.700;-79.318;2023-09-30T15:11:59;15;15;
64138;PMS5003;50435;43.700;-79.318;2023-09-30T15:14:26;11;11;
64138;PMS5003;50435;43.700;-79.318;2023-09-30T15:16:54;17;15;
64138;PMS5003;50435;43.700;-79.318;2023-09-30T15:19:21;22;16;
64138;PMS5003;50435;43.700;-79.318;2023-09-30T15:21:48;15;14;
64138;PMS5003;50435;43.700;-79.318;2023-09-30T15:24:16;15;14;
64138;PMS5003;50435;43.700;-79.318;2023-09-30T15:26:43;12;11;
64138;PMS5003;50435;43.700;-79.318;2023-09-30T15:29:10;12;11;
64138;PMS5003;50435;43.700;-79.318;2023-09-30T15:31:38;18;15;
64138;PMS5003;50435;43.700;-79.318;2023-09-30T15:34:05;12;12;
64138;PMS5003;50435;43.700;-79.318;2023-09-30T15:36:33;16;15;
64138;PMS5003;50435;43.700;-79.318;2023-09-30T15:39:00;14;13;
64138;PMS5003;50435;43.700;-79.318;2023-09-30T15:41:27;16;13;
64138;PMS5003;50435;43.700;-79.318;2023-09-30T15:43:55;14;11;
64138;PMS5003;50435;43.700;-79.318;2023-09-30T15:46:25;13;11;
64138;PMS5003;50435;43.700;-79.318;2023-09-30T15:48:52;12;12;
64138;PMS5003;50435;43.700;-79.318;2023-09-30T15:51:20;16;16;
64138;PMS5003;50435;43.700;-79.318;2023-09-30T15:53:47;15;13;
64138;PMS5003;50435;43.700;-79.318;2023-09-30T15:56:15;18;17;
64138;PMS5003;50435;43.700;-79.318;2023-09-30T15:58:42;14;14;